sensor_id;sensor_type;location;lat;lon;timestamp;temperature;humidity
37310;DHT22;23195;47.744;7.358;2023-02-28T00:00:36;1.40;96.20
37310;DHT22;23195;47.744;7.358;2023-02-28T00:03:05;1.30;96.10
37310;DHT22;23195;47.744;7.358;2023-02-28T00:05:31;1.30;96.20
37310;DHT22;23195;47.744;7.358;2023-02-28T00:07:57;1.30;96.20
37310;DHT22;23195;47.744;7.358;2023-02-28T00:10:28;1.20;96.20
37310;DHT22;23195;47.744;7.358;2023-02-28T00:12:56;1.20;96.30
37310;DHT22;23195;47.744;7.358;2023-02-28T00:15:23;1.30;96.30
37310;DHT22;23195;47.744;7.358;2023-02-28T00:17:49;1.20;96.40
37310;DHT22;23195;47.744;7.358;2023-02-28T00:20:16;1.30;96.40
37310;DHT22;23195;47.744;7.358;2023-02-28T00:22:44;1.20;96.40
37310;DHT22;23195;47.744;7.358;2023-02-28T00:25:12;1.20;96.60
37310;DHT22;23195;47.744;7.358;2023-02-28T00:27:40;1.20;96.60
37310;DHT22;23195;47.744;7.358;2023-02-28T00:30:08;1.10;96.60
37310;DHT22;23195;47.744;7.358;2023-02-28T00:32:39;1.20;96.70
37310;DHT22;23195;47.744;7.358;2023-02-28T00:35:06;1.10;96.70
37310;DHT22;23195;47.744;7.358;2023-02-28T00:37:32;1.20;96.80
37310;DHT22;23195;47.744;7.358;2023-02-28T00:39:58;1.10;96.80
37310;DHT22;23195;47.744;7.358;2023-02-28T00:42:24;1.20;96.90
37310;DHT22;23195;47.744;7.358;2023-02-28T00:44:53;1.10;96.90
37310;DHT22;23195;47.744;7.358;2023-02-28T00:47:19;1.10;96.90
37310;DHT22;23195;47.744;7.358;2023-02-28T00:49:48;1.10;97.10
37310;DHT22;23195;47.744;7.358;2023-02-28T00:52:14;0.20;96.70
37310;DHT22;23195;47.744;7.358;2023-02-28T00:54:40;1.00;97.00
37310;DHT22;23195;47.744;7.358;2023-02-28T00:57:05;1.00;97.00
37310;DHT22;23195;47.744;7.358;2023-02-28T00:59:37;1.00;97.10
37310;DHT22;23195;47.744;7.358;2023-02-28T01:02:03;1.00;97.20
37310;DHT22;23195;47.744;7.358;2023-02-28T01:04:29;1.50;97.20
37310;DHT22;23195;47.744;7.358;2023-02-28T01:06:55;0.90;97.20
37310;DHT22;23195;47.744;7.358;2023-02-28T01:09:20;0.90;96.90
37310;DHT22;23195;47.744;7.358;2023-02-28T01:11:46;0.80;97.00
37310;DHT22;23195;47.744;7.358;2023-02-28T01:14:14;-0.40;96.70
37310;DHT22;23195;47.744;7.358;2023-02-28T01:16:40;0.80;97.10
37310;DHT22;23195;47.744;7.358;2023-02-28T01:19:06;0.80;97.00
37310;DHT22;23195;47.744;7.358;2023-02-28T01:21:31;0.70;96.90
37310;DHT22;23195;47.744;7.358;2023-02-28T01:23:57;0.70;97.20
37310;DHT22;23195;47.744;7.358;2023-02-28T01:26:24;0.70;97.30
37310;DHT22;23195;47.744;7.358;2023-02-28T01:28:51;0.60;97.50
37310;DHT22;23195;47.744;7.358;2023-02-28T01:31:17;0.60;97.70
37310;DHT22;23195;47.744;7.358;2023-02-28T01:33:44;0.60;97.70
37310;DHT22;23195;47.744;7.358;2023-02-28T01:36:17;0.50;97.60
37310;DHT22;23195;47.744;7.358;2023-02-28T01:38:43;0.50;97.80
37310;DHT22;23195;47.744;7.358;2023-02-28T01:41:20;0.40;97.80
37310;DHT22;23195;47.744;7.358;2023-02-28T01:46:13;0.40;98.00
37310;DHT22;23195;47.744;7.358;2023-02-28T01:51:50;0.50;98.20
37310;DHT22;23195;47.744;7.358;2023-02-28T01:54:21;0.40;98.20
37310;DHT22;23195;47.744;7.358;2023-02-28T01:57:34;0.40;98.40
37310;DHT22;23195;47.744;7.358;2023-02-28T01:59:43;0.30;98.70
37310;DHT22;23195;47.744;7.358;2023-02-28T02:02:13;0.40;98.80
37310;DHT22;23195;47.744;7.358;2023-02-28T02:04:43;0.30;99.10
37310;DHT22;23195;47.744;7.358;2023-02-28T02:07:13;0.30;99.30
37310;DHT22;23195;47.744;7.358;2023-02-28T02:09:39;0.20;99.50
37310;DHT22;23195;47.744;7.358;2023-02-28T02:12:56;0.10;99.60
37310;DHT22;23195;47.744;7.358;2023-02-28T02:15:16;-0.30;99.80
37310;DHT22;23195;47.744;7.358;2023-02-28T02:17:47;0.10;99.90
37310;DHT22;23195;47.744;7.358;2023-02-28T02:23:23;0.10;99.90
37310;DHT22;23195;47.744;7.358;2023-02-28T02:34:50;0.00;99.90
37310;DHT22;23195;47.744;7.358;2023-02-28T02:40:08;0.00;99.90
37310;DHT22;23195;47.744;7.358;2023-02-28T02:45:35;-0.10;99.90
37310;DHT22;23195;47.744;7.358;2023-02-28T02:48:06;-0.10;99.90
37310;DHT22;23195;47.744;7.358;2023-02-28T02:50:38;-0.90;99.90
37310;DHT22;23195;47.744;7.358;2023-02-28T02:53:06;-0.10;99.90
37310;DHT22;23195;47.744;7.358;2023-02-28T02:55:35;0.00;99.90
37310;DHT22;23195;47.744;7.358;2023-02-28T02:58:04;0.00;99.90
37310;DHT22;23195;47.744;7.358;2023-02-28T03:00:37;-0.10;99.90
37310;DHT22;23195;47.744;7.358;2023-02-28T03:03:09;-0.10;99.90
37310;DHT22;23195;47.744;7.358;2023-02-28T03:05:43;0.00;99.90
37310;DHT22;23195;47.744;7.358;2023-02-28T03:08:11;0.00;99.90
37310;DHT22;23195;47.744;7.358;2023-02-28T03:10:45;-0.10;99.90
37310;DHT22;23195;47.744;7.358;2023-02-28T03:16:25;0.00;99.90
37310;DHT22;23195;47.744;7.358;2023-02-28T03:21:38;0.00;99.90
37310;DHT22;23195;47.744;7.358;2023-02-28T03:27:29;0.00;99.90
37310;DHT22;23195;47.744;7.358;2023-02-28T03:30:06;-0.10;99.90
37310;DHT22;23195;47.744;7.358;2023-02-28T03:32:42;0.00;99.90
37310;DHT22;23195;47.744;7.358;2023-02-28T03:35:22;-0.10;99.90
37310;DHT22;23195;47.744;7.358;2023-02-28T03:38:08;0.00;99.90
37310;DHT22;23195;47.744;7.358;2023-02-28T03:40:37;0.10;99.90
37310;DHT22;23195;47.744;7.358;2023-02-28T03:43:12;0.10;99.90
37310;DHT22;23195;47.744;7.358;2023-02-28T03:45:41;0.00;99.90
37310;DHT22;23195;47.744;7.358;2023-02-28T03:48:49;0.00;99.90
37310;DHT22;23195;47.744;7.358;2023-02-28T03:51:18;0.10;99.90
37310;DHT22;23195;47.744;7.358;2023-02-28T03:53:56;0.00;99.90
37310;DHT22;23195;47.744;7.358;2023-02-28T03:56:43;-0.10;99.90
37310;DHT22;23195;47.744;7.358;2023-02-28T03:59:21;0.00;99.90
37310;DHT22;23195;47.744;7.358;2023-02-28T04:01:50;0.00;99.90
37310;DHT22;23195;47.744;7.358;2023-02-28T04:04:17;0.00;99.90
37310;DHT22;23195;47.744;7.358;2023-02-28T04:06:44;0.00;99.90
37310;DHT22;23195;47.744;7.358;2023-02-28T04:09:12;0.10;99.90
37310;DHT22;23195;47.744;7.358;2023-02-28T04:11:48;0.10;99.90
37310;DHT22;23195;47.744;7.358;2023-02-28T04:14:17;0.00;99.90
37310;DHT22;23195;47.744;7.358;2023-02-28T04:16:43;0.00;99.90
37310;DHT22;23195;47.744;7.358;2023-02-28T04:19:13;0.00;99.90
37310;DHT22;23195;47.744;7.358;2023-02-28T04:21:41;0.50;99.90
37310;DHT22;23195;47.744;7.358;2023-02-28T04:24:09;0.00;99.90
37310;DHT22;23195;47.744;7.358;2023-02-28T04:26:40;0.00;99.90
37310;DHT22;23195;47.744;7.358;2023-02-28T04:29:09;0.00;99.90
37310;DHT22;23195;47.744;7.358;2023-02-28T04:31:35;0.00;99.90
37310;DHT22;23195;47.744;7.358;2023-02-28T04:34:01;0.00;99.90
37310;DHT22;23195;47.744;7.358;2023-02-28T04:36:27;0.00;99.90
37310;DHT22;23195;47.744;7.358;2023-02-28T04:38:54;0.00;99.90
37310;DHT22;23195;47.744;7.358;2023-02-28T04:41:20;-1.20;99.90
37310;DHT22;23195;47.744;7.358;2023-02-28T04:43:48;0.00;99.90
37310;DHT22;23195;47.744;7.358;2023-02-28T04:46:14;0.00;99.90
37310;DHT22;23195;47.744;7.358;2023-02-28T04:48:40;-0.10;99.90
37310;DHT22;23195;47.744;7.358;2023-02-28T04:51:09;-0.10;99.90
37310;DHT22;23195;47.744;7.358;2023-02-28T04:53:36;-0.10;99.90
37310;DHT22;23195;47.744;7.358;2023-02-28T04:56:03;-1.10;99.90
37310;DHT22;23195;47.744;7.358;2023-02-28T04:58:29;-0.10;99.90
37310;DHT22;23195;47.744;7.358;2023-02-28T05:01:06;-0.10;99.90
37310;DHT22;23195;47.744;7.358;2023-02-28T05:03:41;-0.10;99.90
37310;DHT22;23195;47.744;7.358;2023-02-28T05:06:08;0.00;99.90
37310;DHT22;23195;47.744;7.358;2023-02-28T05:08:36;0.00;99.90
37310;DHT22;23195;47.744;7.358;2023-02-28T05:11:03;0.00;99.90
37310;DHT22;23195;47.744;7.358;2023-02-28T05:13:29;0.00;99.90
37310;DHT22;23195;47.744;7.358;2023-02-28T05:15:58;-0.10;99.90
37310;DHT22;23195;47.744;7.358;2023-02-28T05:18:24;-0.10;99.90
37310;DHT22;23195;47.744;7.358;2023-02-28T05:20:50;-0.80;99.90
37310;DHT22;23195;47.744;7.358;2023-02-28T05:23:17;0.00;99.90
37310;DHT22;23195;47.744;7.358;2023-02-28T05:25:43;0.00;99.90
37310;DHT22;23195;47.744;7.358;2023-02-28T05:28:08;0.00;99.90
37310;DHT22;23195;47.744;7.358;2023-02-28T05:30:34;0.00;99.90
37310;DHT22;23195;47.744;7.358;2023-02-28T05:33:00;0.00;99.90
37310;DHT22;23195;47.744;7.358;2023-02-28T05:35:26;-0.10;99.90
37310;DHT22;23195;47.744;7.358;2023-02-28T05:37:52;-0.10;99.90
37310;DHT22;23195;47.744;7.358;2023-02-28T05:40:18;-0.10;99.90
37310;DHT22;23195;47.744;7.358;2023-02-28T05:42:46;0.00;99.90
37310;DHT22;23195;47.744;7.358;2023-02-28T05:45:12;0.00;99.90
37310;DHT22;23195;47.744;7.358;2023-02-28T05:47:38;0.00;99.90
37310;DHT22;23195;47.744;7.358;2023-02-28T05:50:05;-0.40;99.90
37310;DHT22;23195;47.744;7.358;2023-02-28T05:52:31;-0.10;99.90
37310;DHT22;23195;47.744;7.358;2023-02-28T05:54:57;-0.20;99.90
37310;DHT22;23195;47.744;7.358;2023-02-28T05:57:23;-0.20;99.90
37310;DHT22;23195;47.744;7.358;2023-02-28T05:59:49;-0.40;99.90
37310;DHT22;23195;47.744;7.358;2023-02-28T06:02:16;-0.40;99.90
37310;DHT22;23195;47.744;7.358;2023-02-28T06:04:43;-0.50;99.90
37310;DHT22;23195;47.744;7.358;2023-02-28T06:07:09;-0.50;99.90
37310;DHT22;23195;47.744;7.358;2023-02-28T06:09:36;-0.50;99.90
37310;DHT22;23195;47.744;7.358;2023-02-28T06:12:04;-0.50;99.90
37310;DHT22;23195;47.744;7.358;2023-02-28T06:14:32;-0.50;99.90
37310;DHT22;23195;47.744;7.358;2023-02-28T06:17:02;-1.10;99.90
37310;DHT22;23195;47.744;7.358;2023-02-28T06:19:28;-0.60;99.90
37310;DHT22;23195;47.744;7.358;2023-02-28T06:21:56;-0.60;99.90
37310;DHT22;23195;47.744;7.358;2023-02-28T06:24:24;-0.70;99.90
37310;DHT22;23195;47.744;7.358;2023-02-28T06:26:50;-0.80;99.90
37310;DHT22;23195;47.744;7.358;2023-02-28T06:29:16;-0.80;99.90
37310;DHT22;23195;47.744;7.358;2023-02-28T06:31:52;-0.90;99.90
37310;DHT22;23195;47.744;7.358;2023-02-28T06:34:18;-0.80;99.90
37310;DHT22;23195;47.744;7.358;2023-02-28T06:36:44;-1.30;99.90
37310;DHT22;23195;47.744;7.358;2023-02-28T06:39:10;-0.80;99.90
37310;DHT22;23195;47.744;7.358;2023-02-28T06:41:39;-0.80;99.90
37310;DHT22;23195;47.744;7.358;2023-02-28T06:44:15;-0.80;99.90
37310;DHT22;23195;47.744;7.358;2023-02-28T06:46:42;-0.70;99.90
37310;DHT22;23195;47.744;7.358;2023-02-28T06:49:09;-0.80;99.90
37310;DHT22;23195;47.744;7.358;2023-02-28T06:51:40;-0.70;99.90
37310;DHT22;23195;47.744;7.358;2023-02-28T06:54:09;-0.70;99.90
37310;DHT22;23195;47.744;7.358;2023-02-28T06:56:35;-0.80;99.90
37310;DHT22;23195;47.744;7.358;2023-02-28T06:59:01;-0.80;99.90
37310;DHT22;23195;47.744;7.358;2023-02-28T07:01:30;-1.20;99.90
37310;DHT22;23195;47.744;7.358;2023-02-28T07:03:58;-0.60;99.90
37310;DHT22;23195;47.744;7.358;2023-02-28T07:06:25;-0.90;99.90
37310;DHT22;23195;47.744;7.358;2023-02-28T07:08:52;-0.80;99.90
37310;DHT22;23195;47.744;7.358;2023-02-28T07:11:19;-0.80;99.90
37310;DHT22;23195;47.744;7.358;2023-02-28T07:13:50;-0.70;99.90
37310;DHT22;23195;47.744;7.358;2023-02-28T07:16:16;-0.60;99.90
37310;DHT22;23195;47.744;7.358;2023-02-28T07:18:42;-0.50;99.90
37310;DHT22;23195;47.744;7.358;2023-02-28T07:21:09;-0.60;99.90
37310;DHT22;23195;47.744;7.358;2023-02-28T07:23:36;-0.60;99.90
37310;DHT22;23195;47.744;7.358;2023-02-28T07:26:04;-0.60;99.90
37310;DHT22;23195;47.744;7.358;2023-02-28T07:28:30;-0.50;99.90
37310;DHT22;23195;47.744;7.358;2023-02-28T07:31:14;-0.40;99.90
37310;DHT22;23195;47.744;7.358;2023-02-28T07:33:49;-0.40;99.90
37310;DHT22;23195;47.744;7.358;2023-02-28T07:36:16;-0.50;99.90
37310;DHT22;23195;47.744;7.358;2023-02-28T07:38:48;-0.40;99.90
37310;DHT22;23195;47.744;7.358;2023-02-28T07:41:20;-0.30;99.90
37310;DHT22;23195;47.744;7.358;2023-02-28T07:43:47;-0.10;99.90
37310;DHT22;23195;47.744;7.358;2023-02-28T07:46:16;-0.10;99.90
37310;DHT22;23195;47.744;7.358;2023-02-28T07:48:43;0.00;99.90
37310;DHT22;23195;47.744;7.358;2023-02-28T07:51:09;0.00;99.90
37310;DHT22;23195;47.744;7.358;2023-02-28T07:53:35;0.10;99.90
37310;DHT22;23195;47.744;7.358;2023-02-28T07:56:02;0.20;99.90
37310;DHT22;23195;47.744;7.358;2023-02-28T07:58:30;0.30;99.90
37310;DHT22;23195;47.744;7.358;2023-02-28T08:01:06;0.30;99.90
37310;DHT22;23195;47.744;7.358;2023-02-28T08:03:32;0.50;99.90
37310;DHT22;23195;47.744;7.358;2023-02-28T08:05:58;0.10;99.90
37310;DHT22;23195;47.744;7.358;2023-02-28T08:08:24;0.00;99.90
37310;DHT22;23195;47.744;7.358;2023-02-28T08:10:55;0.00;99.90
37310;DHT22;23195;47.744;7.358;2023-02-28T08:13:21;0.10;99.90
37310;DHT22;23195;47.744;7.358;2023-02-28T08:15:47;0.20;99.90
37310;DHT22;23195;47.744;7.358;2023-02-28T08:18:13;0.10;99.90
37310;DHT22;23195;47.744;7.358;2023-02-28T08:20:38;0.20;99.90
37310;DHT22;23195;47.744;7.358;2023-02-28T08:23:07;0.10;99.90
37310;DHT22;23195;47.744;7.358;2023-02-28T08:25:33;0.30;99.90
37310;DHT22;23195;47.744;7.358;2023-02-28T08:28:02;0.30;99.90
37310;DHT22;23195;47.744;7.358;2023-02-28T08:30:28;0.50;99.90
37310;DHT22;23195;47.744;7.358;2023-02-28T08:32:54;0.60;99.90
37310;DHT22;23195;47.744;7.358;2023-02-28T08:35:23;0.70;99.90
37310;DHT22;23195;47.744;7.358;2023-02-28T08:37:49;0.90;99.90
37310;DHT22;23195;47.744;7.358;2023-02-28T08:40:15;0.90;99.90
37310;DHT22;23195;47.744;7.358;2023-02-28T08:42:47;0.80;99.90
37310;DHT22;23195;47.744;7.358;2023-02-28T08:45:16;0.80;99.90
37310;DHT22;23195;47.744;7.358;2023-02-28T08:47:41;0.80;99.90
37310;DHT22;23195;47.744;7.358;2023-02-28T08:50:10;0.80;99.90
37310;DHT22;23195;47.744;7.358;2023-02-28T08:52:36;0.90;99.90
37310;DHT22;23195;47.744;7.358;2023-02-28T08:55:04;1.10;99.90
37310;DHT22;23195;47.744;7.358;2023-02-28T08:57:30;1.10;99.90
37310;DHT22;23195;47.744;7.358;2023-02-28T08:59:55;1.10;99.90
37310;DHT22;23195;47.744;7.358;2023-02-28T09:02:21;1.20;99.90
37310;DHT22;23195;47.744;7.358;2023-02-28T09:04:47;1.20;99.90
37310;DHT22;23195;47.744;7.358;2023-02-28T09:07:13;1.40;99.90
37310;DHT22;23195;47.744;7.358;2023-02-28T09:09:39;1.30;99.90
37310;DHT22;23195;47.744;7.358;2023-02-28T09:12:26;1.30;99.90
37310;DHT22;23195;47.744;7.358;2023-02-28T09:14:52;0.70;99.90
37310;DHT22;23195;47.744;7.358;2023-02-28T09:17:19;1.20;99.90
37310;DHT22;23195;47.744;7.358;2023-02-28T09:19:48;1.10;99.90
37310;DHT22;23195;47.744;7.358;2023-02-28T09:22:14;1.00;99.90
37310;DHT22;23195;47.744;7.358;2023-02-28T09:24:43;1.20;99.90
37310;DHT22;23195;47.744;7.358;2023-02-28T09:27:12;0.80;99.90
37310;DHT22;23195;47.744;7.358;2023-02-28T09:29:41;0.80;99.90
37310;DHT22;23195;47.744;7.358;2023-02-28T09:32:06;0.80;99.90
37310;DHT22;23195;47.744;7.358;2023-02-28T09:34:32;0.70;99.90
37310;DHT22;23195;47.744;7.358;2023-02-28T09:36:58;0.70;99.90
37310;DHT22;23195;47.744;7.358;2023-02-28T09:39:24;0.50;99.90
37310;DHT22;23195;47.744;7.358;2023-02-28T09:41:53;0.90;99.90
37310;DHT22;23195;47.744;7.358;2023-02-28T09:44:39;0.70;99.90
37310;DHT22;23195;47.744;7.358;2023-02-28T09:47:27;0.70;99.90
37310;DHT22;23195;47.744;7.358;2023-02-28T09:49:58;0.60;99.90
37310;DHT22;23195;47.744;7.358;2023-02-28T09:52:30;0.70;99.90
37310;DHT22;23195;47.744;7.358;2023-02-28T09:55:25;0.70;99.90
37310;DHT22;23195;47.744;7.358;2023-02-28T09:57:50;0.70;99.90
37310;DHT22;23195;47.744;7.358;2023-02-28T10:00:32;0.70;99.90
37310;DHT22;23195;47.744;7.358;2023-02-28T10:05:54;0.80;99.90
37310;DHT22;23195;47.744;7.358;2023-02-28T10:08:31;1.00;99.90
37310;DHT22;23195;47.744;7.358;2023-02-28T10:11:06;1.20;99.90
37310;DHT22;23195;47.744;7.358;2023-02-28T10:16:17;1.50;99.90
37310;DHT22;23195;47.744;7.358;2023-02-28T10:18:56;1.40;99.90
37310;DHT22;23195;47.744;7.358;2023-02-28T10:21:36;1.50;99.90
37310;DHT22;23195;47.744;7.358;2023-02-28T10:24:19;1.50;99.90
37310;DHT22;23195;47.744;7.358;2023-02-28T10:26:47;1.40;99.90
37310;DHT22;23195;47.744;7.358;2023-02-28T10:29:14;1.50;99.90
37310;DHT22;23195;47.744;7.358;2023-02-28T10:31:40;1.60;99.90
37310;DHT22;23195;47.744;7.358;2023-02-28T10:34:07;1.60;99.90
37310;DHT22;23195;47.744;7.358;2023-02-28T10:36:33;1.60;99.90
37310;DHT22;23195;47.744;7.358;2023-02-28T10:38:59;1.70;99.90
37310;DHT22;23195;47.744;7.358;2023-02-28T10:41:29;1.80;99.90
37310;DHT22;23195;47.744;7.358;2023-02-28T10:44:22;1.90;99.90
37310;DHT22;23195;47.744;7.358;2023-02-28T10:46:50;1.90;99.90
37310;DHT22;23195;47.744;7.358;2023-02-28T10:49:27;1.80;99.90
37310;DHT22;23195;47.744;7.358;2023-02-28T10:51:59;1.80;99.90
37310;DHT22;23195;47.744;7.358;2023-02-28T10:54:34;1.80;99.90
37310;DHT22;23195;47.744;7.358;2023-02-28T10:57:22;1.90;99.90
37310;DHT22;23195;47.744;7.358;2023-02-28T11:00:05;2.00;99.90
37310;DHT22;23195;47.744;7.358;2023-02-28T11:02:34;2.10;99.90
37310;DHT22;23195;47.744;7.358;2023-02-28T11:05:00;2.00;99.90
37310;DHT22;23195;47.744;7.358;2023-02-28T11:07:26;2.00;99.90
37310;DHT22;23195;47.744;7.358;2023-02-28T11:09:55;2.30;99.90
37310;DHT22;23195;47.744;7.358;2023-02-28T11:12:31;2.40;99.90
37310;DHT22;23195;47.744;7.358;2023-02-28T11:15:26;2.50;99.90
37310;DHT22;23195;47.744;7.358;2023-02-28T11:20:28;2.20;99.90
37310;DHT22;23195;47.744;7.358;2023-02-28T11:22:56;2.50;99.90
37310;DHT22;23195;47.744;7.358;2023-02-28T11:27:55;2.60;99.90
37310;DHT22;23195;47.744;7.358;2023-02-28T11:30:31;2.40;99.90
37310;DHT22;23195;47.744;7.358;2023-02-28T11:32:59;2.40;99.90
37310;DHT22;23195;47.744;7.358;2023-02-28T11:35:33;2.60;99.90
37310;DHT22;23195;47.744;7.358;2023-02-28T11:38:02;2.80;99.90
37310;DHT22;23195;47.744;7.358;2023-02-28T11:40:42;2.80;99.90
37310;DHT22;23195;47.744;7.358;2023-02-28T11:43:28;2.90;99.90
37310;DHT22;23195;47.744;7.358;2023-02-28T11:54:44;3.10;99.90
37310;DHT22;23195;47.744;7.358;2023-02-28T11:57:49;3.20;99.90
37310;DHT22;23195;47.744;7.358;2023-02-28T12:16:27;3.50;99.90
37310;DHT22;23195;47.744;7.358;2023-02-28T12:28:16;3.40;99.90
37310;DHT22;23195;47.744;7.358;2023-02-28T12:34:10;3.40;99.90
37310;DHT22;23195;47.744;7.358;2023-02-28T12:36:40;3.50;99.90
37310;DHT22;23195;47.744;7.358;2023-02-28T12:39:15;3.70;99.90
37310;DHT22;23195;47.744;7.358;2023-02-28T12:42:17;3.60;99.90
37310;DHT22;23195;47.744;7.358;2023-02-28T12:44:44;3.50;99.90
37310;DHT22;23195;47.744;7.358;2023-02-28T12:47:16;3.70;99.90
37310;DHT22;23195;47.744;7.358;2023-02-28T12:50:04;3.60;99.90
37310;DHT22;23195;47.744;7.358;2023-02-28T12:52:41;3.50;99.90
37310;DHT22;23195;47.744;7.358;2023-02-28T12:55:19;3.50;99.90
37310;DHT22;23195;47.744;7.358;2023-02-28T13:10:02;3.80;99.90
37310;DHT22;23195;47.744;7.358;2023-02-28T13:12:29;3.80;99.90
37310;DHT22;23195;47.744;7.358;2023-02-28T13:15:22;3.90;99.90
37310;DHT22;23195;47.744;7.358;2023-02-28T13:17:52;3.90;99.90
37310;DHT22;23195;47.744;7.358;2023-02-28T13:20:34;3.90;99.90
37310;DHT22;23195;47.744;7.358;2023-02-28T13:23:01;3.90;99.90
37310;DHT22;23195;47.744;7.358;2023-02-28T13:28:08;4.00;99.90
37310;DHT22;23195;47.744;7.358;2023-02-28T13:33:34;3.00;99.90
37310;DHT22;23195;47.744;7.358;2023-02-28T13:38:48;4.20;99.90
37310;DHT22;23195;47.744;7.358;2023-02-28T13:49:33;3.70;99.90
37310;DHT22;23195;47.744;7.358;2023-02-28T13:52:15;3.70;99.90
37310;DHT22;23195;47.744;7.358;2023-02-28T14:03:47;3.90;99.90
37310;DHT22;23195;47.744;7.358;2023-02-28T14:06:35;4.00;99.90
37310;DHT22;23195;47.744;7.358;2023-02-28T14:09:03;4.00;99.90
37310;DHT22;23195;47.744;7.358;2023-02-28T14:11:36;4.10;99.90
37310;DHT22;23195;47.744;7.358;2023-02-28T14:14:04;3.70;99.90
37310;DHT22;23195;47.744;7.358;2023-02-28T14:16:46;3.70;99.90
37310;DHT22;23195;47.744;7.358;2023-02-28T14:32:51;4.30;99.90
37310;DHT22;23195;47.744;7.358;2023-02-28T14:35:49;3.90;99.90
37310;DHT22;23195;47.744;7.358;2023-02-28T14:39:10;3.80;99.90
37310;DHT22;23195;47.744;7.358;2023-02-28T14:41:32;3.60;99.90
37310;DHT22;23195;47.744;7.358;2023-02-28T14:44:03;3.60;99.90
37310;DHT22;23195;47.744;7.358;2023-02-28T14:46:40;3.60;99.90
37310;DHT22;23195;47.744;7.358;2023-02-28T14:49:21;3.50;99.90
37310;DHT22;23195;47.744;7.358;2023-02-28T14:51:49;3.50;99.90
37310;DHT22;23195;47.744;7.358;2023-02-28T14:54:21;3.50;99.90
37310;DHT22;23195;47.744;7.358;2023-02-28T14:56:50;3.00;99.90
37310;DHT22;23195;47.744;7.358;2023-02-28T14:59:35;3.40;99.90
37310;DHT22;23195;47.744;7.358;2023-02-28T15:02:22;3.30;99.90
37310;DHT22;23195;47.744;7.358;2023-02-28T15:05:00;3.40;99.90
37310;DHT22;23195;47.744;7.358;2023-02-28T15:07:29;3.30;99.90
37310;DHT22;23195;47.744;7.358;2023-02-28T15:10:13;3.30;99.90
37310;DHT22;23195;47.744;7.358;2023-02-28T15:12:40;3.40;99.90
37310;DHT22;23195;47.744;7.358;2023-02-28T15:15:17;2.70;99.90
37310;DHT22;23195;47.744;7.358;2023-02-28T15:17:50;3.30;99.90
37310;DHT22;23195;47.744;7.358;2023-02-28T15:20:18;3.20;99.90
37310;DHT22;23195;47.744;7.358;2023-02-28T15:22:46;3.30;99.90
37310;DHT22;23195;47.744;7.358;2023-02-28T15:25:17;3.30;99.90
37310;DHT22;23195;47.744;7.358;2023-02-28T15:27:49;3.20;99.90
37310;DHT22;23195;47.744;7.358;2023-02-28T15:30:26;3.20;99.90
37310;DHT22;23195;47.744;7.358;2023-02-28T15:35:41;3.30;99.90
37310;DHT22;23195;47.744;7.358;2023-02-28T15:38:24;3.30;99.90
37310;DHT22;23195;47.744;7.358;2023-02-28T15:40:56;3.30;99.90
37310;DHT22;23195;47.744;7.358;2023-02-28T15:43:30;3.20;99.90
37310;DHT22;23195;47.744;7.358;2023-02-28T15:46:08;3.30;99.90
37310;DHT22;23195;47.744;7.358;2023-02-28T15:48:54;3.40;99.90
37310;DHT22;23195;47.744;7.358;2023-02-28T15:51:43;3.40;99.90
37310;DHT22;23195;47.744;7.358;2023-02-28T15:54:24;3.10;99.90
37310;DHT22;23195;47.744;7.358;2023-02-28T15:57:04;2.60;99.90
37310;DHT22;23195;47.744;7.358;2023-02-28T15:59:35;3.00;99.90
37310;DHT22;23195;47.744;7.358;2023-02-28T16:02:19;3.10;99.90
37310;DHT22;23195;47.744;7.358;2023-02-28T16:07:35;3.20;99.90
37310;DHT22;23195;47.744;7.358;2023-02-28T16:10:01;3.20;99.90
37310;DHT22;23195;47.744;7.358;2023-02-28T16:12:32;3.20;99.90
37310;DHT22;23195;47.744;7.358;2023-02-28T16:15:01;3.20;99.90
37310;DHT22;23195;47.744;7.358;2023-02-28T16:17:34;3.20;99.90
37310;DHT22;23195;47.744;7.358;2023-02-28T16:20:00;3.10;99.90
37310;DHT22;23195;47.744;7.358;2023-02-28T16:22:26;3.10;99.90
37310;DHT22;23195;47.744;7.358;2023-02-28T16:24:52;3.10;99.90
37310;DHT22;23195;47.744;7.358;2023-02-28T16:27:30;3.10;99.90
37310;DHT22;23195;47.744;7.358;2023-02-28T16:29:56;3.20;99.90
37310;DHT22;23195;47.744;7.358;2023-02-28T16:32:23;3.00;99.90
37310;DHT22;23195;47.744;7.358;2023-02-28T16:34:49;2.90;99.90
37310;DHT22;23195;47.744;7.358;2023-02-28T16:37:16;3.00;99.90
37310;DHT22;23195;47.744;7.358;2023-02-28T16:39:44;3.00;99.90
37310;DHT22;23195;47.744;7.358;2023-02-28T16:42:25;3.00;99.90
37310;DHT22;23195;47.744;7.358;2023-02-28T16:44:53;3.00;99.90
37310;DHT22;23195;47.744;7.358;2023-02-28T16:47:21;3.00;99.90
37310;DHT22;23195;47.744;7.358;2023-02-28T16:49:47;3.10;99.90
37310;DHT22;23195;47.744;7.358;2023-02-28T16:52:16;3.00;99.90
37310;DHT22;23195;47.744;7.358;2023-02-28T16:54:42;3.10;99.90
37310;DHT22;23195;47.744;7.358;2023-02-28T16:57:20;3.00;99.90
37310;DHT22;23195;47.744;7.358;2023-02-28T16:59:57;2.90;99.90
37310;DHT22;23195;47.744;7.358;2023-02-28T17:02:23;3.00;99.90
37310;DHT22;23195;47.744;7.358;2023-02-28T17:04:48;2.90;99.90
37310;DHT22;23195;47.744;7.358;2023-02-28T17:07:15;2.90;99.90
37310;DHT22;23195;47.744;7.358;2023-02-28T17:09:45;2.90;99.90
37310;DHT22;23195;47.744;7.358;2023-02-28T17:12:11;2.70;99.90
37310;DHT22;23195;47.744;7.358;2023-02-28T17:14:37;2.70;99.90
37310;DHT22;23195;47.744;7.358;2023-02-28T17:17:05;2.70;99.90
37310;DHT22;23195;47.744;7.358;2023-02-28T17:19:31;2.60;99.90
37310;DHT22;23195;47.744;7.358;2023-02-28T17:21:56;2.60;99.90
37310;DHT22;23195;47.744;7.358;2023-02-28T17:24:22;2.60;99.90
37310;DHT22;23195;47.744;7.358;2023-02-28T17:26:48;2.70;99.90
37310;DHT22;23195;47.744;7.358;2023-02-28T17:29:17;2.60;99.90
37310;DHT22;23195;47.744;7.358;2023-02-28T17:31:46;2.60;99.90
37310;DHT22;23195;47.744;7.358;2023-02-28T17:34:12;2.60;99.90
37310;DHT22;23195;47.744;7.358;2023-02-28T17:36:44;2.60;99.90
37310;DHT22;23195;47.744;7.358;2023-02-28T17:39:12;2.60;99.90
37310;DHT22;23195;47.744;7.358;2023-02-28T17:41:43;2.50;99.90
37310;DHT22;23195;47.744;7.358;2023-02-28T17:44:09;2.40;99.90
37310;DHT22;23195;47.744;7.358;2023-02-28T17:46:35;2.30;99.90
37310;DHT22;23195;47.744;7.358;2023-02-28T17:49:01;2.30;99.90
37310;DHT22;23195;47.744;7.358;2023-02-28T17:51:27;2.20;99.90
37310;DHT22;23195;47.744;7.358;2023-02-28T17:53:53;2.20;99.90
37310;DHT22;23195;47.744;7.358;2023-02-28T17:56:20;2.10;99.90
37310;DHT22;23195;47.744;7.358;2023-02-28T17:58:52;2.00;99.90
37310;DHT22;23195;47.744;7.358;2023-02-28T18:01:21;1.90;99.90
37310;DHT22;23195;47.744;7.358;2023-02-28T18:03:48;1.80;99.90
37310;DHT22;23195;47.744;7.358;2023-02-28T18:06:38;1.80;99.90
37310;DHT22;23195;47.744;7.358;2023-02-28T18:09:20;1.70;99.90
37310;DHT22;23195;47.744;7.358;2023-02-28T18:11:55;1.60;99.90
37310;DHT22;23195;47.744;7.358;2023-02-28T18:14:23;1.50;99.90
37310;DHT22;23195;47.744;7.358;2023-02-28T18:16:50;1.50;99.90
37310;DHT22;23195;47.744;7.358;2023-02-28T18:19:16;1.50;99.90
37310;DHT22;23195;47.744;7.358;2023-02-28T18:21:50;1.40;99.90